Time;durP1;ratioP1;P1;durP2;ratioP2;P2;SDS_P1;SDS_P2;PMS_P1;PMS_P2;Temp;Humidity;BMP_temperature;BMP_pressure;BME280_temperature;BME280_humidity;BME280_pressure;Samples;Min_cycle;Max_cycle;Signal;HPM_P1;HPM_P2
2021/06/11 00:02:01;;;;;;;8.20;4.30;;;18.20;77.80;;;;;;5041684;28;20041;-78
2021/06/11 00:04:27;;;;;;;7.80;4.22;;;18.20;77.70;;;;;;5043989;28;20029;-78
2021/06/11 00:06:52;;;;;;;9.75;4.40;;;18.20;77.60;;;;;;5038039;28;20335;-77
2021/06/11 00:09:18;;;;;;;7.35;4.35;;;18.10;77.80;;;;;;5040990;28;20040;-77
2021/06/11 00:11:45;;;;;;;7.40;4.30;;;18.10;77.90;;;;;;5043554;28;20032;-77
2021/06/11 00:14:11;;;;;;;8.13;4.70;;;18.10;78.00;;;;;;5039887;28;20021;-78
2021/06/11 00:16:37;;;;;;;7.70;4.43;;;18.10;78.10;;;;;;5044948;28;20128;-79
2021/06/11 00:19:03;;;;;;;8.48;4.68;;;18.10;78.30;;;;;;5042249;28;20468;-76
2021/06/11 00:21:29;;;;;;;9.38;4.88;;;18.10;78.40;;;;;;5042506;28;20464;-76
2021/06/11 00:23:54;;;;;;;8.45;4.72;;;18.10;78.50;;;;;;5043438;28;20073;-78
2021/06/11 00:26:20;;;;;;;8.88;4.75;;;18.00;78.70;;;;;;5040308;28;20026;-78
2021/06/11 00:28:46;;;;;;;8.32;4.57;;;18.00;78.70;;;;;;5043119;28;20037;-78
2021/06/11 00:31:12;;;;;;;7.80;4.72;;;18.00;78.70;;;;;;5043618;28;20037;-78
2021/06/11 00:33:37;;;;;;;7.90;4.65;;;17.90;78.80;;;;;;5040289;28;20410;-77
2021/06/11 00:36:03;;;;;;;8.35;5.15;;;17.90;78.80;;;;;;5043447;28;20410;-78
2021/06/11 00:38:31;;;;;;;9.35;4.65;;;18.00;78.70;;;;;;5041907;28;20037;-77
2021/06/11 00:40:57;;;;;;;8.73;5.03;;;17.90;78.70;;;;;;5041288;28;20492;-79
2021/06/11 00:43:23;;;;;;;9.52;4.53;;;17.80;78.60;;;;;;5040838;28;20123;-79
2021/06/11 00:45:48;;;;;;;7.07;4.35;;;17.80;78.80;;;;;;5041734;28;20453;-77
2021/06/11 00:48:14;;;;;;;8.45;4.70;;;17.80;78.70;;;;;;5042174;28;20047;-77
2021/06/11 00:50:40;;;;;;;8.32;4.78;;;17.70;78.60;;;;;;5041211;28;20041;-77
2021/06/11 00:53:08;;;;;;;7.95;4.47;;;17.70;78.80;;;;;;5041617;28;20039;-77
2021/06/11 00:55:35;;;;;;;7.95;4.97;;;17.60;79.00;;;;;;5040952;28;20036;-76
2021/06/11 00:58:00;;;;;;;8.90;4.80;;;17.60;78.90;;;;;;5042034;28;20045;-76
2021/06/11 01:00:26;;;;;;;8.52;4.93;;;17.50;79.10;;;;;;5039627;28;20412;-79
2021/06/11 01:02:53;;;;;;;8.18;4.53;;;17.60;79.20;;;;;;5041536;28;21453;-76
2021/06/11 01:05:19;;;;;;;8.65;4.40;;;17.50;79.10;;;;;;5040313;28;20033;-78
2021/06/11 01:07:52;;;;;;;8.20;4.60;;;17.50;79.20;;;;;;5042278;28;20036;-78
2021/06/11 01:10:18;;;;;;;10.15;5.50;;;17.50;79.50;;;;;;5041308;28;20052;-78
2021/06/11 01:12:46;;;;;;;9.18;5.13;;;17.50;79.80;;;;;;5040344;28;20447;-77
2021/06/11 01:15:13;;;;;;;10.30;4.95;;;17.50;79.80;;;;;;5039618;28;20048;-79
2021/06/11 01:17:40;;;;;;;9.18;4.60;;;17.50;79.90;;;;;;5040286;28;20044;-77
2021/06/11 01:20:09;;;;;;;8.10;4.78;;;17.40;79.90;;;;;;5042856;28;20037;-78
2021/06/11 01:22:53;;;;;;;7.65;4.70;;;17.40;79.80;;;;;;5039258;28;20067;-78
2021/06/11 01:25:32;;;;;;;7.70;4.75;;;17.30;79.90;;;;;;5039969;28;20317;-80
2021/06/11 01:27:58;;;;;;;7.97;4.55;;;17.30;80.10;;;;;;5041718;28;20059;-78
2021/06/11 01:30:25;;;;;;;8.45;4.22;;;17.30;80.10;;;;;;5040210;28;20473;-77
2021/06/11 01:32:54;;;;;;;8.32;4.70;;;17.20;80.30;;;;;;5041220;28;20476;-78
2021/06/11 01:35:28;;;;;;;7.90;4.38;;;17.30;80.40;;;;;;5039362;28;21162;-77
2021/06/11 01:38:01;;;;;;;7.57;4.00;;;17.20;80.30;;;;;;5039104;28;20045;-78
2021/06/11 01:40:28;;;;;;;8.40;4.47;;;17.10;80.20;;;;;;5039792;28;20037;-77
2021/06/11 01:42:56;;;;;;;7.57;4.43;;;17.10;80.30;;;;;;5040509;28;20075;-77
2021/06/11 01:45:23;;;;;;;8.15;4.35;;;17.10;80.70;;;;;;5040931;28;20025;-79
2021/06/11 01:47:50;;;;;;;8.05;4.18;;;17.10;80.60;;;;;;5040936;28;20420;-77
2021/06/11 01:50:23;;;;;;;7.47;4.25;;;17.10;80.90;;;;;;5035266;28;20445;-76
2021/06/11 01:52:52;;;;;;;8.98;4.55;;;17.10;80.90;;;;;;5040313;28;20025;-78
2021/06/11 01:55:19;;;;;;;7.72;4.50;;;17.00;80.80;;;;;;5038814;28;20647;-77
2021/06/11 01:57:45;;;;;;;8.05;4.53;;;17.00;80.90;;;;;;5040824;28;20219;-78
2021/06/11 02:00:13;;;;;;;7.47;4.38;;;17.00;81.10;;;;;;5052948;28;20424;-78
2021/06/11 02:02:39;;;;;;;9.02;4.43;;;16.90;81.20;;;;;;5039375;28;20029;-78
2021/06/11 02:05:07;;;;;;;9.32;4.57;;;16.90;81.30;;;;;;5033859;28;20372;-78
2021/06/11 02:07:34;;;;;;;7.47;4.03;;;16.90;81.40;;;;;;5041263;28;20053;-77
2021/06/11 02:10:00;;;;;;;8.23;4.65;;;16.80;81.30;;;;;;5041753;28;20059;-78
2021/06/11 02:12:25;;;;;;;8.48;4.57;;;16.80;81.40;;;;;;5038172;28;20029;-78
2021/06/11 02:14:52;;;;;;;7.32;4.45;;;16.80;81.60;;;;;;5039402;28;20044;-78
2021/06/11 02:17:18;;;;;;;7.68;4.45;;;16.80;81.50;;;;;;5038854;28;20025;-77
2021/06/11 02:19:45;;;;;;;8.20;4.60;;;16.70;81.70;;;;;;5039280;28;20068;-78
2021/06/11 02:22:11;;;;;;;8.40;4.78;;;16.70;81.80;;;;;;5039785;28;20033;-80
2021/06/11 02:24:39;;;;;;;7.45;4.18;;;16.60;81.70;;;;;;5038526;28;20021;-78
2021/06/11 02:27:07;;;;;;;9.15;5.07;;;16.60;81.90;;;;;;5040566;28;20037;-78
2021/06/11 02:29:34;;;;;;;8.05;4.88;;;16.50;82.10;;;;;;5039853;28;20116;-77
2021/06/11 02:32:00;;;;;;;7.70;4.28;;;16.50;82.10;;;;;;5045765;28;20094;-76
2021/06/11 02:34:26;;;;;;;10.25;4.50;;;16.50;82.20;;;;;;5041809;28;20064;-76
2021/06/11 02:36:52;;;;;;;8.00;4.68;;;16.50;82.30;;;;;;5058907;28;20052;-77
2021/06/11 02:39:18;;;;;;;9.07;4.93;;;16.50;82.40;;;;;;5044429;28;20029;-79
2021/06/11 02:41:48;;;;;;;9.40;4.85;;;16.40;82.50;;;;;;5044030;28;20438;-77
2021/06/11 02:44:14;;;;;;;9.50;5.28;;;16.40;82.60;;;;;;5042119;28;20124;-78
2021/06/11 02:46:47;;;;;;;7.88;4.35;;;16.30;82.50;;;;;;5040844;28;20029;-78
2021/06/11 02:49:27;;;;;;;9.82;5.35;;;16.40;82.60;;;;;;5043920;28;20495;-78
2021/06/11 02:51:57;;;;;;;8.82;4.55;;;16.40;82.60;;;;;;5044231;28;20037;-77
2021/06/11 02:54:27;;;;;;;8.25;4.50;;;16.30;82.30;;;;;;5038665;28;20199;-80
2021/06/11 02:57:04;;;;;;;8.18;4.75;;;16.40;82.40;;;;;;5041655;28;20511;-78
2021/06/11 02:59:39;;;;;;;7.93;4.72;;;16.30;82.60;;;;;;5044645;28;20115;-78
2021/06/11 03:02:09;;;;;;;10.88;5.57;;;16.20;82.50;;;;;;5043125;28;20148;-80
2021/06/11 03:04:39;;;;;;;8.75;5.15;;;16.30;82.70;;;;;;5044813;28;20037;-77
2021/06/11 03:07:05;;;;;;;8.95;4.95;;;16.30;82.70;;;;;;5043633;28;20037;-77
2021/06/11 03:09:34;;;;;;;9.80;5.60;;;16.20;82.80;;;;;;5043136;28;20405;-78
2021/06/11 03:12:02;;;;;;;10.23;6.18;;;16.20;82.80;;;;;;5041739;28;20371;-79
2021/06/11 03:14:29;;;;;;;10.15;5.45;;;16.20;82.90;;;;;;5041530;28;20399;-80
2021/06/11 03:16:59;;;;;;;8.48;5.60;;;16.10;83.30;;;;;;5041932;28;20048;-79
2021/06/11 03:19:30;;;;;;;9.10;5.72;;;16.10;83.30;;;;;;5040980;28;20041;-79
2021/06/11 03:22:13;;;;;;;9.18;5.63;;;16.10;83.10;;;;;;5041578;28;20043;-78
2021/06/11 03:25:01;;;;;;;9.70;5.30;;;16.10;83.10;;;;;;5042634;28;20510;-78
2021/06/11 03:27:48;;;;;;;9.00;5.43;;;16.20;83.20;;;;;;5040585;28;20079;-79
2021/06/11 03:30:18;;;;;;;8.48;5.38;;;16.10;83.00;;;;;;5041854;28;21007;-79
2021/06/11 03:32:50;;;;;;;10.05;6.20;;;16.20;83.20;;;;;;5041690;28;20076;-78
2021/06/11 03:35:23;;;;;;;11.13;6.72;;;16.10;83.00;;;;;;5043023;28;20040;-80
2021/06/11 03:37:54;;;;;;;9.82;6.28;;;16.10;83.30;;;;;;5041289;28;20043;-78
2021/06/11 03:40:24;;;;;;;9.40;5.97;;;16.10;83.30;;;;;;5038498;28;20098;-80
2021/06/11 03:42:53;;;;;;;9.60;5.72;;;16.10;83.30;;;;;;5041170;28;20025;-80
2021/06/11 03:45:20;;;;;;;10.80;6.13;;;16.10;83.30;;;;;;5040758;28;20163;-78
2021/06/11 03:47:48;;;;;;;10.95;6.35;;;16.10;83.30;;;;;;5044976;28;20029;-77
2021/06/11 03:50:19;;;;;;;10.23;6.15;;;16.20;83.10;;;;;;5042352;28;20045;-80
2021/06/11 03:52:46;;;;;;;9.95;5.72;;;16.20;83.20;;;;;;5042808;28;20480;-79
2021/06/11 03:55:21;;;;;;;10.98;6.07;;;16.30;82.90;;;;;;5041419;28;20472;-78
2021/06/11 03:57:59;;;;;;;9.75;6.75;;;16.30;82.70;;;;;;5041508;28;20411;-79
2021/06/11 04:00:26;;;;;;;8.95;5.80;;;16.30;82.60;;;;;;5040387;28;20087;-78
2021/06/11 04:02:52;;;;;;;10.07;6.45;;;16.30;82.50;;;;;;5041481;28;20033;-79
2021/06/11 04:05:18;;;;;;;9.15;5.95;;;16.30;82.20;;;;;;5041133;28;20107;-80
2021/06/11 04:07:51;;;;;;;9.63;6.53;;;16.40;82.40;;;;;;5040354;28;20025;-78
2021/06/11 04:10:37;;;;;;;9.50;6.18;;;16.40;82.50;;;;;;5040058;28;20384;-79
2021/06/11 04:13:24;;;;;;;10.57;6.20;;;16.40;82.50;;;;;;5042302;28;20044;-79
2021/06/11 04:15:53;;;;;;;11.57;6.78;;;16.50;82.30;;;;;;5039629;28;20055;-78
2021/06/11 04:18:29;;;;;;;10.60;6.43;;;16.50;82.30;;;;;;5042152;28;20460;-80
2021/06/11 04:20:58;;;;;;;10.05;7.05;;;16.60;81.80;;;;;;5044487;28;20055;-78
2021/06/11 04:23:33;;;;;;;12.25;7.53;;;16.60;81.60;;;;;;5041884;28;20029;-79
2021/06/11 04:26:01;;;;;;;12.93;7.53;;;16.70;81.80;;;;;;5040605;28;20040;-78
2021/06/11 04:28:31;;;;;;;13.48;8.18;;;16.70;81.80;;;;;;5039093;28;20539;-78
2021/06/11 04:30:58;;;;;;;11.77;7.15;;;16.70;81.80;;;;;;5038429;28;20076;-78
2021/06/11 04:33:28;;;;;;;11.57;6.88;;;16.70;81.80;;;;;;5037743;28;20044;-78
2021/06/11 04:35:54;;;;;;;12.68;6.70;;;16.70;82.20;;;;;;5039858;28;20521;-78
2021/06/11 04:38:21;;;;;;;9.68;6.05;;;16.80;82.10;;;;;;5039115;28;20068;-78
2021/06/11 04:40:48;;;;;;;10.63;7.38;;;16.70;82.30;;;;;;5037558;28;20045;-78
2021/06/11 04:43:14;;;;;;;12.68;8.95;;;16.70;82.00;;;;;;5040672;28;20129;-79
2021/06/11 04:45:40;;;;;;;14.55;10.18;;;16.60;82.60;;;;;;5037469;28;20043;-80
2021/06/11 04:48:06;;;;;;;16.58;11.93;;;16.50;83.00;;;;;;5037035;28;20044;-79
2021/06/11 04:50:32;;;;;;;19.95;14.00;;;16.50;82.90;;;;;;5036925;28;20389;-78
2021/06/11 04:52:58;;;;;;;19.80;14.70;;;16.50;82.70;;;;;;5037278;28;20504;-79
2021/06/11 04:55:24;;;;;;;21.75;15.82;;;16.50;83.20;;;;;;5037004;28;20052;-78
2021/06/11 04:57:52;;;;;;;21.38;15.93;;;16.50;83.20;;;;;;5037831;28;20029;-78
2021/06/11 05:00:18;;;;;;;22.33;16.35;;;16.50;83.40;;;;;;5038026;28;20098;-80
2021/06/11 05:02:44;;;;;;;26.30;18.75;;;16.40;83.40;;;;;;5040180;28;20090;-78
2021/06/11 05:05:10;;;;;;;31.50;20.08;;;16.40;83.30;;;;;;5037545;28;20041;-77
2021/06/11 05:07:36;;;;;;;35.00;21.88;;;16.20;84.10;;;;;;5039481;28;20021;-78
2021/06/11 05:10:03;;;;;;;30.17;19.88;;;16.20;84.90;;;;;;5038890;28;20033;-78
2021/06/11 05:12:29;;;;;;;30.85;20.42;;;16.20;84.70;;;;;;5040313;28;20047;-78
2021/06/11 05:14:55;;;;;;;29.85;18.15;;;16.20;84.80;;;;;;5038536;28;20033;-78
2021/06/11 05:17:20;;;;;;;26.88;17.45;;;16.20;84.90;;;;;;5039439;28;20033;-79
2021/06/11 05:19:46;;;;;;;27.50;17.65;;;16.20;85.10;;;;;;5037380;28;20322;-78
2021/06/11 05:22:12;;;;;;;28.85;17.85;;;16.30;84.80;;;;;;5037198;28;20028;-80
2021/06/11 05:24:37;;;;;;;31.30;17.33;;;16.20;85.10;;;;;;5038604;28;20720;-77
2021/06/11 05:27:04;;;;;;;29.05;18.02;;;16.20;85.10;;;;;;5039240;28;20056;-78
2021/06/11 05:29:29;;;;;;;28.60;16.30;;;16.20;85.10;;;;;;5039597;28;20033;-78
2021/06/11 05:31:55;;;;;;;27.25;15.45;;;16.20;84.90;;;;;;5041933;28;20428;-79
2021/06/11 05:34:21;;;;;;;29.27;15.57;;;16.20;85.10;;;;;;5037914;28;20059;-78
2021/06/11 05:36:46;;;;;;;29.15;14.85;;;16.20;85.50;;;;;;5041974;28;21196;-78
2021/06/11 05:39:12;;;;;;;28.38;15.50;;;16.20;85.40;;;;;;5036775;28;20048;-77
2021/06/11 05:41:38;;;;;;;30.58;15.80;;;16.30;85.50;;;;;;5037053;28;20531;-77
2021/06/11 05:44:04;;;;;;;32.05;16.23;;;16.40;85.60;;;;;;5041109;28;20492;-78
2021/06/11 05:46:30;;;;;;;30.73;16.15;;;16.50;85.00;;;;;;5038528;28;20067;-78
2021/06/11 05:48:55;;;;;;;24.52;14.00;;;16.50;85.20;;;;;;5038219;28;20435;-78
2021/06/11 05:51:21;;;;;;;23.42;14.05;;;16.30;85.20;;;;;;5039170;28;20380;-77
2021/06/11 05:53:47;;;;;;;24.10;14.20;;;16.20;85.50;;;;;;5038568;28;21987;-77
2021/06/11 05:56:13;;;;;;;21.65;12.45;;;16.20;86.00;;;;;;5038355;28;20036;-77
2021/06/11 05:58:39;;;;;;;19.45;12.18;;;16.30;86.00;;;;;;5037808;28;20029;-77
2021/06/11 06:01:05;;;;;;;19.63;12.13;;;16.40;85.90;;;;;;5040773;28;20093;-78
2021/06/11 06:03:31;;;;;;;18.27;10.98;;;16.60;85.60;;;;;;5038309;28;20037;-77
2021/06/11 06:05:57;;;;;;;17.73;10.70;;;16.50;85.00;;;;;;5038745;28;20051;-77
2021/06/11 06:08:23;;;;;;;16.15;10.38;;;16.60;85.20;;;;;;5040520;28;20037;-76
2021/06/11 06:10:48;;;;;;;15.80;11.23;;;16.70;84.60;;;;;;5037440;28;20453;-74
2021/06/11 06:13:14;;;;;;;14.68;9.68;;;16.80;84.50;;;;;;5039586;28;20472;-74
2021/06/11 06:15:40;;;;;;;15.57;10.52;;;16.90;84.50;;;;;;5035656;28;20037;-74
2021/06/11 06:18:06;;;;;;;15.93;10.68;;;17.00;83.70;;;;;;5039535;28;20071;-74
2021/06/11 06:20:32;;;;;;;16.40;10.82;;;17.10;83.20;;;;;;5040193;28;20546;-73
2021/06/11 06:22:57;;;;;;;16.30;10.75;;;17.10;83.10;;;;;;5038202;28;20033;-69
2021/06/11 06:25:23;;;;;;;16.00;11.00;;;17.10;83.20;;;;;;5037987;28;20119;-69
2021/06/11 06:27:48;;;;;;;18.48;11.68;;;17.10;83.30;;;;;;5035731;28;20059;-70
2021/06/11 06:30:15;;;;;;;17.80;10.40;;;16.80;82.90;;;;;;5036099;28;20069;-72
2021/06/11 06:32:41;;;;;;;15.98;9.77;;;16.80;84.10;;;;;;5034952;28;20060;-69
2021/06/11 06:35:09;;;;;;;14.07;9.23;;;16.90;83.40;;;;;;5035638;28;20642;-73
2021/06/11 06:37:35;;;;;;;16.08;9.90;;;16.90;83.10;;;;;;5039014;28;20036;-68
2021/06/11 06:40:01;;;;;;;16.10;9.63;;;16.60;83.80;;;;;;5040339;28;20047;-72
2021/06/11 06:42:27;;;;;;;17.20;10.27;;;16.50;84.40;;;;;;5036358;28;20475;-68
2021/06/11 06:44:53;;;;;;;20.30;11.93;;;16.60;84.50;;;;;;5035309;28;20120;-69
2021/06/11 06:47:19;;;;;;;18.10;11.40;;;16.50;84.70;;;;;;5036528;28;20051;-70
2021/06/11 06:49:45;;;;;;;16.00;9.95;;;16.60;84.70;;;;;;5038805;28;20052;-73
2021/06/11 06:52:10;;;;;;;18.45;11.30;;;16.70;84.90;;;;;;5040305;28;20465;-69
2021/06/11 06:54:36;;;;;;;18.85;12.00;;;16.80;84.40;;;;;;5037945;28;20045;-71
2021/06/11 06:57:02;;;;;;;21.02;12.88;;;16.90;83.70;;;;;;5036860;28;20768;-68
2021/06/11 06:59:28;;;;;;;22.77;15.05;;;16.90;84.00;;;;;;5037087;28;20445;-68
2021/06/11 07:01:59;;;;;;;21.50;13.32;;;17.00;83.90;;;;;;5037158;28;20064;-69
2021/06/11 07:04:25;;;;;;;15.88;10.73;;;17.10;83.70;;;;;;5039554;28;20025;-69
2021/06/11 07:06:51;;;;;;;14.15;8.80;;;17.20;83.30;;;;;;5040149;28;20152;-68
2021/06/11 07:09:18;;;;;;;15.40;9.15;;;17.30;83.20;;;;;;5040641;28;20112;-68
2021/06/11 07:11:44;;;;;;;17.15;10.27;;;17.30;82.60;;;;;;5036933;28;20041;-68
2021/06/11 07:14:09;;;;;;;13.80;9.77;;;17.40;83.30;;;;;;5037807;28;20021;-69
2021/06/11 07:16:35;;;;;;;14.23;9.23;;;17.50;82.60;;;;;;5039436;28;20037;-69
2021/06/11 07:19:01;;;;;;;12.80;8.70;;;17.60;82.40;;;;;;5043243;28;20488;-69
2021/06/11 07:21:28;;;;;;;13.02;8.70;;;17.60;82.60;;;;;;5040013;28;20048;-71
2021/06/11 07:23:54;;;;;;;15.48;8.68;;;17.70;82.00;;;;;;5039855;28;20041;-68
2021/06/11 07:26:20;;;;;;;14.05;8.63;;;17.80;81.90;;;;;;5043438;28;20062;-68
2021/06/11 07:28:46;;;;;;;14.43;8.95;;;18.00;81.30;;;;;;5043679;28;20404;-69
2021/06/11 07:31:12;;;;;;;11.18;7.82;;;18.10;81.30;;;;;;5045265;28;20083;-68
2021/06/11 07:33:37;;;;;;;13.73;7.22;;;18.30;79.90;;;;;;5044375;28;20079;-71
2021/06/11 07:36:03;;;;;;;10.35;7.18;;;18.30;78.90;;;;;;5039840;28;20033;-70
2021/06/11 07:38:29;;;;;;;9.48;6.72;;;18.40;79.10;;;;;;5042955;28;20037;-67
2021/06/11 07:40:55;;;;;;;11.32;7.18;;;18.50;78.30;;;;;;5042271;28;20078;-68
2021/06/11 07:43:22;;;;;;;10.45;7.38;;;18.40;78.80;;;;;;5041539;28;20040;-68
2021/06/11 07:45:49;;;;;;;11.85;8.35;;;18.50;78.90;;;;;;5048326;28;20096;-70
2021/06/11 07:48:15;;;;;;;12.82;8.38;;;18.50;79.20;;;;;;5044792;28;20051;-69
2021/06/11 07:50:41;;;;;;;10.70;7.53;;;18.60;79.00;;;;;;5042060;28;20118;-68
2021/06/11 07:53:07;;;;;;;13.00;8.25;;;18.70;78.20;;;;;;5039443;28;20460;-68
2021/06/11 07:55:32;;;;;;;11.90;7.63;;;19.00;77.60;;;;;;5041386;28;20045;-69
2021/06/11 07:58:02;;;;;;;11.63;7.47;;;19.20;76.90;;;;;;5041237;28;20400;-71
2021/06/11 08:00:31;;;;;;;12.13;7.35;;;19.40;76.40;;;;;;5045379;28;20493;-73
2021/06/11 08:02:57;;;;;;;8.55;6.28;;;19.50;76.00;;;;;;5049848;28;20029;-88
2021/06/11 08:05:24;;;;;;;9.55;6.10;;;19.60;75.20;;;;;;5049435;28;20099;-74
2021/06/11 08:07:50;;;;;;;9.80;6.18;;;19.80;74.90;;;;;;5049158;28;20025;-75
2021/06/11 08:10:15;;;;;;;9.52;6.00;;;20.00;73.40;;;;;;5042725;28;20048;-74
2021/06/11 08:12:41;;;;;;;9.75;5.90;;;20.10;73.10;;;;;;5047425;28;20052;-80
2021/06/11 08:15:07;;;;;;;9.88;6.22;;;20.00;74.40;;;;;;5047176;28;20131;-74
2021/06/11 08:17:33;;;;;;;9.55;6.63;;;20.20;73.20;;;;;;5041394;28;20057;-74
2021/06/11 08:19:59;;;;;;;10.20;6.60;;;20.60;72.40;;;;;;5043745;28;20428;-72
2021/06/11 08:22:25;;;;;;;11.57;6.05;;;21.00;71.30;;;;;;5036586;28;20694;-74
2021/06/11 08:24:50;;;;;;;9.93;5.25;;;20.90;71.40;;;;;;5037298;28;20564;-71
2021/06/11 08:27:16;;;;;;;8.23;4.80;;;21.00;71.10;;;;;;5034082;28;20056;-70
2021/06/11 08:29:42;;;;;;;9.77;4.70;;;21.40;69.30;;;;;;5036589;28;20456;-71
2021/06/11 08:32:08;;;;;;;8.38;5.47;;;21.60;68.40;;;;;;5038528;28;20045;-71
2021/06/11 08:34:36;;;;;;;9.95;6.18;;;21.10;69.80;;;;;;5042719;28;20051;-71
2021/06/11 08:37:04;;;;;;;10.05;6.18;;;20.90;70.40;;;;;;5039532;28;20090;-71
2021/06/11 08:39:30;;;;;;;12.20;6.47;;;21.00;72.00;;;;;;5040580;28;20465;-74
2021/06/11 08:41:57;;;;;;;13.27;7.05;;;21.60;69.60;;;;;;5037920;28;20056;-75
2021/06/11 08:44:26;;;;;;;11.77;7.28;;;21.90;68.30;;;;;;5020245;28;20416;-71
2021/06/11 08:46:52;;;;;;;13.25;7.70;;;22.00;68.50;;;;;;5041071;28;20545;-70
2021/06/11 08:49:17;;;;;;;11.02;7.07;;;21.60;68.50;;;;;;5051619;28;20029;-70
2021/06/11 08:51:45;;;;;;;10.93;6.60;;;21.50;68.90;;;;;;5040210;28;20546;-69
2021/06/11 08:54:10;;;;;;;8.73;5.93;;;21.60;69.30;;;;;;5040157;28;20037;-69
2021/06/11 08:56:36;;;;;;;10.52;6.03;;;21.80;68.30;;;;;;5040146;28;20087;-73
2021/06/11 08:59:02;;;;;;;9.57;6.25;;;21.80;68.60;;;;;;5040068;28;20037;-69
2021/06/11 09:01:28;;;;;;;10.00;6.60;;;22.30;66.70;;;;;;5041047;28;20051;-71
2021/06/11 09:03:54;;;;;;;10.02;6.18;;;22.40;66.30;;;;;;5040528;28;20041;-69
2021/06/11 09:06:20;;;;;;;13.07;6.88;;;22.70;65.10;;;;;;5041078;28;20037;-69
2021/06/11 09:08:56;;;;;;;11.18;7.55;;;22.80;65.40;;;;;;5035674;28;20086;-70
2021/06/11 09:11:24;;;;;;;14.98;8.15;;;22.40;65.50;;;;;;5038820;28;20437;-71
2021/06/11 09:13:59;;;;;;;18.83;10.07;;;22.60;67.30;;;;;;5039347;28;20121;-70
2021/06/11 09:16:26;;;;;;;15.30;9.75;;;23.00;64.20;;;;;;5041024;28;20032;-71
2021/06/11 09:18:53;;;;;;;15.80;10.23;;;23.30;65.20;;;;;;5038393;28;20048;-73
2021/06/11 09:21:36;;;;;;;16.90;10.25;;;23.60;63.30;;;;;;5039588;28;20329;-70
2021/06/11 09:24:21;;;;;;;14.18;9.48;;;23.70;62.80;;;;;;5039471;28;20129;-74
2021/06/11 09:26:59;;;;;;;16.73;9.30;;;23.80;61.40;;;;;;5038529;28;20037;-71
2021/06/11 09:29:26;;;;;;;16.58;9.05;;;23.70;62.10;;;;;;5037198;28;20029;-73
2021/06/11 09:31:53;;;;;;;12.57;8.65;;;23.50;62.50;;;;;;5037869;28;21701;-72
2021/06/11 09:34:28;;;;;;;14.88;10.13;;;23.60;62.70;;;;;;5038344;28;20063;-73
2021/06/11 09:36:58;;;;;;;14.73;9.80;;;23.60;62.60;;;;;;5037784;28;20056;-73
2021/06/11 09:39:24;;;;;;;15.95;10.23;;;23.40;63.80;;;;;;5036128;28;20048;-70
2021/06/11 09:42:07;;;;;;;15.45;11.05;;;23.50;63.30;;;;;;5042009;28;20037;-70
2021/06/11 09:44:32;;;;;;;13.88;9.40;;;23.80;61.70;;;;;;5038359;28;20037;-70
2021/06/11 09:46:58;;;;;;;17.27;9.77;;;24.10;61.50;;;;;;5037965;28;20087;-70
2021/06/11 09:49:26;;;;;;;12.88;9.02;;;24.30;61.60;;;;;;5035153;28;20051;-70
2021/06/11 09:52:09;;;;;;;13.68;9.00;;;24.50;61.20;;;;;;5053351;28;20091;-72
2021/06/11 09:54:36;;;;;;;13.30;8.20;;;24.40;60.10;;;;;;5037924;28;20491;-75
2021/06/11 09:57:24;;;;;;;20.83;8.73;;;24.40;60.80;;;;;;5040584;28;20028;-71
2021/06/11 09:59:50;;;;;;;15.02;10.45;;;24.50;60.00;;;;;;5038070;28;20673;-72
2021/06/11 10:02:20;;;;;;;16.20;11.93;;;24.60;60.20;;;;;;5039665;28;20025;-71
2021/06/11 10:04:47;;;;;;;16.65;12.02;;;24.10;61.50;;;;;;5036841;28;20036;-72
2021/06/11 10:07:13;;;;;;;18.73;11.80;;;23.80;62.60;;;;;;5037686;28;20033;-70
2021/06/11 10:09:41;;;;;;;17.92;13.20;;;24.30;62.30;;;;;;5040765;28;20056;-70
2021/06/11 10:12:07;;;;;;;17.27;12.75;;;23.90;62.40;;;;;;5039031;28;20033;-72
2021/06/11 10:14:35;;;;;;;18.23;13.65;;;23.40;63.90;;;;;;5040787;28;20033;-71
2021/06/11 10:17:01;;;;;;;16.33;12.20;;;23.70;64.30;;;;;;5039187;28;20575;-74
2021/06/11 10:19:27;;;;;;;17.30;12.07;;;23.80;63.30;;;;;;5038309;28;20040;-74
2021/06/11 10:21:54;;;;;;;14.80;12.52;;;24.00;63.00;;;;;;5040278;28;20045;-71
2021/06/11 10:24:21;;;;;;;14.93;12.10;;;24.30;62.30;;;;;;5038815;28;20125;-70
2021/06/11 10:26:48;;;;;;;16.90;12.27;;;24.40;61.90;;;;;;5039326;28;20055;-71
2021/06/11 10:29:17;;;;;;;15.77;12.32;;;24.60;60.90;;;;;;5038166;28;20033;-71
2021/06/11 10:31:45;;;;;;;15.27;12.35;;;24.50;60.60;;;;;;5040292;28;20090;-70
2021/06/11 10:34:11;;;;;;;15.10;13.35;;;24.20;62.40;;;;;;5036060;28;20654;-76
2021/06/11 10:36:46;;;;;;;16.50;11.43;;;23.90;62.30;;;;;;5041548;28;20036;-72
2021/06/11 10:39:15;;;;;;;13.43;11.05;;;23.80;63.10;;;;;;5040896;28;20477;-74
2021/06/11 10:42:07;;;;;;;13.05;11.52;;;24.10;62.80;;;;;;5041865;28;20057;-77
2021/06/11 10:44:46;;;;;;;14.32;11.80;;;24.20;62.00;;;;;;5044768;28;20052;-71
2021/06/11 10:47:15;;;;;;;14.38;11.35;;;24.30;62.10;;;;;;5035105;28;20086;-71
2021/06/11 10:52:31;;;;;;;12.63;11.13;;;24.10;62.30;;;;;;5042050;28;20040;-72
2021/06/11 10:55:17;;;;;;;12.65;10.82;;;24.00;62.50;;;;;;5047258;28;20037;-69
2021/06/11 10:57:52;;;;;;;12.95;11.35;;;24.10;62.60;;;;;;5022256;28;20045;-70
2021/06/11 11:00:23;;;;;;;11.82;10.32;;;24.60;61.20;;;;;;5059582;28;20049;-69
2021/06/11 11:02:51;;;;;;;12.60;10.20;;;24.90;61.30;;;;;;5045879;28;20038;-69
2021/06/11 11:05:39;;;;;;;13.65;11.00;;;25.00;59.40;;;;;;5043837;28;20029;-69
2021/06/11 11:08:07;;;;;;;13.55;10.48;;;24.90;59.50;;;;;;5042681;28;20033;-69
2021/06/11 11:10:36;;;;;;;12.50;11.10;;;25.10;59.60;;;;;;5045894;28;20037;-70
2021/06/11 11:13:19;;;;;;;14.20;12.68;;;25.40;58.10;;;;;;5048119;28;20056;-74
2021/06/11 11:15:50;;;;;;;14.65;13.25;;;25.10;59.60;;;;;;5038768;28;20475;-72
2021/06/11 11:18:20;;;;;;;12.23;10.90;;;25.20;58.90;;;;;;5046213;28;20037;-71
2021/06/11 11:20:45;;;;;;;9.73;8.40;;;25.00;60.20;;;;;;5044794;28;20040;-71
2021/06/11 11:23:20;;;;;;;8.73;7.50;;;24.70;60.60;;;;;;5043008;28;20029;-70
2021/06/11 11:25:47;;;;;;;8.73;6.80;;;24.80;60.80;;;;;;5041222;28;20033;-72
2021/06/11 11:28:14;;;;;;;9.55;6.00;;;25.30;59.30;;;;;;5046576;28;20476;-74
2021/06/11 11:30:42;;;;;;;9.60;6.03;;;25.30;59.20;;;;;;5045693;28;20041;-74
2021/06/11 11:33:08;;;;;;;7.40;6.03;;;25.10;59.80;;;;;;5046016;28;21849;-69
2021/06/11 11:35:37;;;;;;;9.32;7.43;;;25.70;57.80;;;;;;5051810;28;20823;-71
2021/06/11 11:38:07;;;;;;;6.85;5.53;;;25.90;56.80;;;;;;5045069;28;20071;-70
2021/06/11 11:40:33;;;;;;;7.55;4.60;;;25.80;58.30;;;;;;5046549;28;20051;-70
2021/06/11 11:43:00;;;;;;;8.55;6.88;;;26.20;57.10;;;;;;5048727;28;20037;-70
2021/06/11 11:45:28;;;;;;;6.78;5.68;;;25.60;58.40;;;;;;5044804;28;20087;-73
2021/06/11 11:47:56;;;;;;;9.00;6.60;;;25.70;59.10;;;;;;5042027;28;20516;-71
2021/06/11 11:50:23;;;;;;;6.82;5.72;;;25.70;58.00;;;;;;5038993;28;20086;-71
2021/06/11 11:52:48;;;;;;;6.88;4.80;;;25.40;58.90;;;;;;5041485;28;20114;-70
2021/06/11 11:55:15;;;;;;;6.25;4.20;;;25.60;58.70;;;;;;5039126;28;20036;-73
2021/06/11 11:57:42;;;;;;;6.80;4.60;;;26.00;58.20;;;;;;5043147;28;20401;-70
2021/06/11 12:00:09;;;;;;;7.15;5.60;;;25.80;56.70;;;;;;5042311;28;20033;-71
2021/06/11 12:02:35;;;;;;;7.78;4.90;;;25.30;59.10;;;;;;5039605;28;20087;-70
2021/06/11 12:05:01;;;;;;;6.60;5.53;;;25.40;59.00;;;;;;5039405;28;20037;-72
2021/06/11 12:07:27;;;;;;;10.27;5.40;;;25.80;58.10;;;;;;5040279;28;20699;-70
2021/06/11 12:09:53;;;;;;;7.03;4.90;;;26.00;57.30;;;;;;5041269;28;20491;-74
2021/06/11 12:12:20;;;;;;;8.73;5.53;;;25.90;57.70;;;;;;5032111;28;20033;-73
2021/06/11 12:14:46;;;;;;;7.55;5.38;;;26.00;58.00;;;;;;5038391;28;20122;-76
2021/06/11 12:17:11;;;;;;;8.50;5.70;;;25.90;57.90;;;;;;5033186;28;20611;-72
2021/06/11 12:19:37;;;;;;;7.57;6.45;;;25.70;59.40;;;;;;5037411;28;20033;-74
2021/06/11 12:22:03;;;;;;;7.20;5.80;;;25.90;57.90;;;;;;5037017;28;20405;-74
2021/06/11 12:24:29;;;;;;;7.65;4.70;;;25.90;58.90;;;;;;5032435;28;20044;-72
2021/06/11 12:26:54;;;;;;;6.00;4.03;;;26.10;57.20;;;;;;5041106;28;20041;-72
2021/06/11 12:29:20;;;;;;;5.15;3.88;;;26.00;58.20;;;;;;5040613;28;20037;-71
2021/06/11 12:31:51;;;;;;;6.25;4.20;;;26.00;58.30;;;;;;5039138;28;20045;-71
2021/06/11 12:34:17;;;;;;;6.97;4.30;;;26.40;56.60;;;;;;5039002;28;20056;-74
2021/06/11 12:36:44;;;;;;;5.95;4.20;;;26.90;55.10;;;;;;5042357;28;20040;-72
2021/06/11 12:39:10;;;;;;;5.55;3.70;;;27.10;53.90;;;;;;5039089;28;20049;-69
2021/06/11 12:41:37;;;;;;;5.63;3.90;;;27.30;54.00;;;;;;5031518;28;20481;-75
2021/06/11 12:44:17;;;;;;;5.88;4.30;;;27.30;52.40;;;;;;5037246;28;20124;-73
2021/06/11 12:46:53;;;;;;;5.22;3.75;;;27.10;54.00;;;;;;5039705;28;20071;-71